Time;durP1;ratioP1;P1;durP2;ratioP2;P2;SDS_P1;SDS_P2;PMS_P1;PMS_P2;Temp;Humidity;BMP_temperature;BMP_pressure;BME280_temperature;BME280_humidity;BME280_pressure;Samples;Min_cycle;Max_cycle;Signal;HPM_P1;HPM_P2
2021/11/28 00:00:18;;;;;;;9.05;4.88;;;;;;;-0.47;100.00;96993.44;5071401;28;20495;-82
2021/11/28 00:02:56;;;;;;;6.72;4.70;;;;;;;-0.59;100.00;96964.44;5053186;28;20048;-82
2021/11/28 00:05:26;;;;;;;7.95;5.20;;;;;;;-0.56;100.00;96965.91;5063852;28;20159;-82
2021/11/28 00:08:10;;;;;;;9.63;4.88;;;;;;;-0.54;100.00;96971.94;5073235;28;20055;-82
2021/11/28 00:10:55;;;;;;;9.57;5.03;;;;;;;-0.51;100.00;96965.41;5073426;28;20056;-82
2021/11/28 00:13:49;;;;;;;7.47;4.87;;;;;;;-0.46;100.00;96969.25;5074017;28;20079;-82
2021/11/28 00:16:17;;;;;;;9.63;5.50;;;;;;;-0.37;100.00;96965.56;5093806;28;20044;-82
2021/11/28 00:18:44;;;;;;;8.65;4.75;;;;;;;-0.32;100.00;96975.72;5092485;28;20048;-82
2021/11/28 00:21:16;;;;;;;8.40;5.25;;;;;;;-0.46;100.00;96969.25;5073571;28;20044;-82
2021/11/28 00:23:43;;;;;;;9.48;4.68;;;;;;;-0.45;100.00;96984.28;5076833;28;20044;-82
2021/11/28 00:26:12;;;;;;;7.07;4.35;;;;;;;-0.39;100.00;96988.09;5093318;28;20044;-82
2021/11/28 00:28:39;;;;;;;11.73;5.07;;;;;;;-0.55;100.00;96965.75;5093271;28;20050;-82
2021/11/28 00:31:07;;;;;;;8.43;4.88;;;;;;;-0.34;100.00;96988.41;5053160;28;20408;-82
2021/11/28 00:33:34;;;;;;;12.85;6.25;;;;;;;-0.50;100.00;96970.56;5053504;28;20074;-82
2021/11/28 00:36:01;;;;;;;11.15;6.68;;;;;;;-0.49;100.00;96982.94;5078262;28;20055;-82
2021/11/28 00:38:30;;;;;;;11.07;6.20;;;;;;;-0.55;100.00;96979.09;5072169;28;20047;-81
2021/11/28 00:40:57;;;;;;;13.63;6.28;;;;;;;-0.47;100.00;96980.09;5078950;28;20055;-81
2021/11/28 00:43:24;;;;;;;9.50;6.00;;;;;;;-0.49;100.00;96985.59;5093946;28;20051;-81
2021/11/28 00:45:52;;;;;;;11.88;6.32;;;;;;;-0.64;100.00;96957.94;5097014;28;20063;-81
2021/11/28 00:48:19;;;;;;;10.48;6.32;;;;;;;-0.51;100.00;96976.94;5093472;28;20044;-81
2021/11/28 00:50:47;;;;;;;9.93;6.15;;;;;;;-0.60;100.00;96954.75;5077278;28;20060;-81
2021/11/28 00:53:16;;;;;;;9.70;5.85;;;;;;;-0.52;100.00;96975.25;5076175;28;20063;-81
2021/11/28 00:55:45;;;;;;;10.60;6.23;;;;;;;-0.50;100.00;96975.91;5076663;28;20496;-81
2021/11/28 00:58:12;;;;;;;9.10;4.75;;;;;;;-0.52;100.00;96972.59;5095513;28;20556;-81
2021/11/28 01:00:42;;;;;;;8.50;4.75;;;;;;;-0.47;100.00;96986.25;5096882;28;20051;-81
2021/11/28 01:03:09;;;;;;;6.75;4.57;;;;;;;-0.48;100.00;96976.59;5062390;28;20048;-81
2021/11/28 01:05:36;;;;;;;9.20;4.75;;;;;;;-0.51;100.00;96978.75;5096836;28;20071;-81
2021/11/28 01:08:03;;;;;;;7.95;4.38;;;;;;;-0.50;100.00;96983.91;5096680;28;20051;-81
2021/11/28 01:10:31;;;;;;;10.18;4.88;;;;;;;-0.58;100.00;96979.44;5081157;28;20040;-81
2021/11/28 01:12:59;;;;;;;8.43;5.10;;;;;;;-0.44;100.00;96999.25;5076379;28;20064;-81
2021/11/28 01:15:26;;;;;;;6.45;4.60;;;;;;;-0.44;100.00;96991.25;5076188;28;20049;-82
2021/11/28 01:17:53;;;;;;;5.55;3.70;;;;;;;-0.41;100.00;96984.75;5076011;28;20109;-81
2021/11/28 01:20:20;;;;;;;9.40;4.35;;;;;;;-0.45;100.00;96986.94;5072445;28;20120;-81
2021/11/28 01:22:47;;;;;;;9.43;5.13;;;;;;;-0.39;100.00;96998.78;5056205;28;20106;-81
2021/11/28 01:25:15;;;;;;;6.60;4.10;;;;;;;-0.39;100.00;97010.28;5055769;28;20045;-81
2021/11/28 01:27:43;;;;;;;6.28;3.97;;;;;;;-0.52;100.00;96993.94;5069241;28;20073;-81
2021/11/28 01:30:12;;;;;;;7.68;4.10;;;;;;;-0.50;100.00;96991.09;5076380;28;20452;-82
2021/11/28 01:32:40;;;;;;;7.22;4.00;;;;;;;-0.48;100.00;97003.28;5075620;28;20052;-81
2021/11/28 01:35:10;;;;;;;7.45;4.25;;;;;;;-0.45;100.00;97015.44;5067642;28;20048;-81
2021/11/28 01:37:38;;;;;;;7.35;4.57;;;;;;;-0.50;100.00;97007.94;5055261;28;20052;-81
2021/11/28 01:40:07;;;;;;;7.97;4.80;;;;;;;-0.49;100.00;97004.28;5071870;28;20388;-81
2021/11/28 01:42:40;;;;;;;14.77;5.70;;;;;;;-0.56;100.00;96998.81;5082713;28;20053;-82
2021/11/28 01:45:10;;;;;;;8.90;5.30;;;;;;;-0.53;100.00;97013.63;5075365;28;20047;-82
2021/11/28 01:47:39;;;;;;;9.82;5.60;;;;;;;-0.52;100.00;97017.16;5074963;28;20048;-82
2021/11/28 01:50:06;;;;;;;9.77;4.78;;;;;;;-0.44;100.00;97025.13;5075340;28;20044;-82
2021/11/28 01:52:36;;;;;;;10.38;5.80;;;;;;;-0.50;100.00;97007.94;5075281;28;20056;-82
2021/11/28 01:55:05;;;;;;;14.50;5.63;;;;;;;-0.52;100.00;97019.81;5054896;28;20053;-82
2021/11/28 01:57:32;;;;;;;8.48;4.85;;;;;;;-0.46;100.00;97038.66;5056747;28;20053;-82
2021/11/28 02:00:00;;;;;;;7.47;4.82;;;;;;;-0.49;100.00;97030.16;5074729;28;20055;-81
2021/11/28 02:02:27;;;;;;;10.07;5.25;;;;;;;-0.57;100.00;97015.81;5074951;28;20404;-82
2021/11/28 02:04:56;;;;;;;7.65;4.95;;;;;;;-0.55;100.00;97018.31;5075965;28;20044;-82
2021/11/28 02:07:23;;;;;;;8.10;4.82;;;;;;;-0.55;100.00;97015.63;5088138;28;20067;-82
2021/11/28 02:09:51;;;;;;;8.77;4.82;;;;;;;-0.41;100.00;97027.47;5075569;28;20571;-82
2021/11/28 02:12:19;;;;;;;7.07;4.20;;;;;;;-0.59;100.00;97008.97;5074927;28;20483;-81
2021/11/28 02:14:46;;;;;;;6.68;5.10;;;;;;;-0.39;100.00;97036.16;5076964;28;20055;-82
2021/11/28 02:17:13;;;;;;;8.68;5.00;;;;;;;-0.50;100.00;97026.63;5074725;28;20427;-82
2021/11/28 02:19:39;;;;;;;7.70;5.15;;;;;;;-0.50;100.00;97029.31;5077821;28;20123;-82
2021/11/28 02:22:08;;;;;;;8.35;4.68;;;;;;;-0.37;100.00;97032.31;5075893;28;20603;-82
2021/11/28 02:24:35;;;;;;;6.30;3.85;;;;;;;-0.35;100.00;97034.81;5074402;28;20051;-82
2021/11/28 02:27:02;;;;;;;7.60;4.20;;;;;;;-0.40;100.00;97021.13;5074687;28;20047;-82
2021/11/28 02:29:29;;;;;;;8.15;4.47;;;;;;;-0.41;100.00;97012.28;5090145;28;20055;-82
2021/11/28 02:31:55;;;;;;;10.75;5.32;;;;;;;-0.40;100.00;97011.28;5083933;28;20053;-82
2021/11/28 02:34:23;;;;;;;7.28;4.28;;;;;;;-0.37;100.00;97010.94;5074423;28;20119;-82
2021/11/28 02:36:52;;;;;;;6.53;4.25;;;;;;;-0.40;100.00;97015.78;5074441;28;20058;-82
2021/11/28 02:39:21;;;;;;;7.82;5.03;;;;;;;-0.44;100.00;96998.44;5073837;28;20045;-81
2021/11/28 02:41:49;;;;;;;9.13;4.75;;;;;;;-0.37;100.00;97013.63;5074232;28;20041;-82
2021/11/28 02:44:18;;;;;;;7.05;4.05;;;;;;;-0.46;100.00;97000.47;5060667;28;20052;-82
2021/11/28 02:46:46;;;;;;;6.03;3.80;;;;;;;-0.43;100.00;97006.28;5060056;28;20128;-82
2021/11/28 02:49:15;;;;;;;6.57;4.30;;;;;;;-0.39;100.00;97017.47;5057057;28;20052;-81
2021/11/28 02:51:43;;;;;;;5.90;4.03;;;;;;;-0.36;100.00;97015.28;5061751;28;20043;-82
2021/11/28 02:54:10;;;;;;;9.65;5.28;;;;;;;-0.31;100.00;97013.97;5067999;28;20048;-82
2021/11/28 02:56:42;;;;;;;6.38;4.47;;;;;;;-0.33;100.00;97019.47;5054010;28;20044;-81
2021/11/28 02:59:10;;;;;;;11.07;5.28;;;;;;;-0.38;100.00;97009.28;5084637;28;20051;-81
2021/11/28 03:01:37;;;;;;;6.47;4.22;;;;;;;-0.46;100.00;97000.47;5090770;28;20097;-82
2021/11/28 03:04:05;;;;;;;9.60;4.68;;;;;;;-0.33;100.00;97016.78;5087178;28;20052;-81
2021/11/28 03:06:32;;;;;;;6.30;4.32;;;;;;;-0.38;100.00;97017.31;5072726;28;20505;-81
2021/11/28 03:08:59;;;;;;;6.95;4.45;;;;;;;-0.46;100.00;97003.94;5077515;28;20044;-81
2021/11/28 03:11:25;;;;;;;7.68;4.88;;;;;;;-0.28;100.00;97025.13;5094034;28;20052;-81
2021/11/28 03:13:54;;;;;;;5.20;3.60;;;;;;;-0.32;100.00;97012.28;5095192;28;20040;-81
2021/11/28 03:16:23;;;;;;;6.82;4.47;;;;;;;-0.44;100.00;97011.78;5093792;28;20484;-81
2021/11/28 03:18:51;;;;;;;7.45;3.63;;;;;;;-0.10;100.00;97013.41;5089883;28;20476;-81
2021/11/28 03:21:20;;;;;;;6.30;3.97;;;;;;;-0.30;100.00;96995.09;5072882;28;20603;-81
2021/11/28 03:23:49;;;;;;;4.95;3.65;;;;;;;-0.31;100.00;97004.09;5073152;28;20044;-81
2021/11/28 03:26:18;;;;;;;7.38;3.42;;;;;;;-0.34;100.00;97006.28;5073529;28;20054;-81
2021/11/28 03:28:51;;;;;;;9.77;3.97;;;;;;;-0.38;100.00;97000.44;5073124;28;20114;-81
2021/11/28 03:31:20;;;;;;;6.63;3.40;;;;;;;-0.24;100.00;97009.59;5073200;28;20114;-81
2021/11/28 03:33:48;;;;;;;7.05;3.85;;;;;;;-0.26;100.00;96991.06;5085857;28;20449;-81
2021/11/28 03:36:17;;;;;;;7.60;3.70;;;;;;;-0.23;100.00;96995.25;5093379;28;20128;-81
2021/11/28 03:38:45;;;;;;;7.63;3.47;;;;;;;-0.21;100.00;96993.22;5083224;28;20044;-80
2021/11/28 03:41:12;;;;;;;6.95;4.05;;;;;;;-0.13;100.00;97005.75;5072958;28;20048;-81
2021/11/28 03:43:40;;;;;;;5.70;3.45;;;;;;;-0.37;100.00;96991.44;5073474;28;20059;-81
2021/11/28 03:46:07;;;;;;;5.95;3.13;;;;;;;-0.36;100.00;96999.28;5085252;28;20389;-80
2021/11/28 03:48:35;;;;;;;6.90;3.50;;;;;;;-0.40;100.00;96983.75;5079918;28;20052;-80
2021/11/28 03:51:03;;;;;;;6.45;3.20;;;;;;;-0.21;100.00;96983.38;5093196;28;20048;-80
2021/11/28 03:53:29;;;;;;;7.50;3.60;;;;;;;-0.13;100.00;97006.56;5079606;28;20044;-80
2021/11/28 03:56:00;;;;;;;5.90;3.88;;;;;;;-0.26;100.00;96984.91;5063307;28;20117;-80
2021/11/28 03:58:28;;;;;;;7.30;3.20;;;;;;;-0.30;100.00;96987.09;5072566;28;20052;-80
2021/11/28 04:00:55;;;;;;;5.90;3.17;;;;;;;-0.33;100.00;96983.91;5089722;28;20052;-80
2021/11/28 04:03:22;;;;;;;5.82;3.50;;;;;;;-0.28;100.00;96993.06;5093239;28;20458;-80
2021/11/28 04:05:51;;;;;;;6.00;3.60;;;;;;;-0.16;100.00;96984.72;5082508;28;20052;-80
2021/11/28 04:08:18;;;;;;;4.63;3.40;;;;;;;-0.07;100.00;96989.03;5072755;28;20049;-80
2021/11/28 04:10:44;;;;;;;4.28;2.97;;;;;;;-0.27;100.00;96975.22;5072915;28;20049;-80
2021/11/28 04:13:11;;;;;;;4.65;2.95;;;;;;;-0.23;100.00;96980.03;5079502;28;20044;-80
2021/11/28 04:15:38;;;;;;;4.15;2.75;;;;;;;-0.16;100.00;96992.75;5080681;28;20060;-80
2021/11/28 04:18:06;;;;;;;6.80;3.47;;;;;;;-0.28;100.00;96985.06;5074622;28;20063;-80
2021/11/28 04:20:33;;;;;;;4.40;3.35;;;;;;;-0.21;100.00;96996.75;5076831;28;20048;-79
2021/11/28 04:23:02;;;;;;;7.15;3.50;;;;;;;-0.43;100.00;96992.09;5067091;28;20132;-80
2021/11/28 04:25:29;;;;;;;5.63;3.17;;;;;;;-0.32;100.00;96980.25;5076950;28;20392;-80
2021/11/28 04:27:56;;;;;;;6.85;3.55;;;;;;;-0.31;100.00;96993.41;5076604;28;20083;-80
2021/11/28 04:30:22;;;;;;;11.00;3.88;;;;;;;-0.32;100.00;97002.41;5072103;28;20049;-80
2021/11/28 04:32:49;;;;;;;7.25;3.78;;;;;;;-0.43;100.00;96979.59;5076490;28;20503;-80
2021/11/28 04:35:16;;;;;;;6.70;3.22;;;;;;;-0.26;100.00;97000.91;5076780;28;20541;-80
2021/11/28 04:37:43;;;;;;;4.88;3.20;;;;;;;-0.36;100.00;96993.09;5076246;28;20110;-80
2021/11/28 04:40:12;;;;;;;9.45;4.15;;;;;;;-0.27;100.00;96997.44;5056052;28;20455;-80
2021/11/28 04:42:39;;;;;;;7.35;3.83;;;;;;;-0.27;100.00;96993.91;5056647;28;20515;-80
2021/11/28 04:45:07;;;;;;;9.48;4.13;;;;;;;-0.37;100.00;96978.91;5058814;28;20049;-80
2021/11/28 04:47:34;;;;;;;6.32;3.90;;;;;;;-0.31;100.00;96973.91;5075805;28;20041;-80
2021/11/28 04:50:01;;;;;;;5.28;3.22;;;;;;;-0.27;100.00;96964.53;5076625;28;20442;-80
2021/11/28 04:52:28;;;;;;;9.05;3.38;;;;;;;-0.24;100.00;96978.41;5076504;28;20052;-80
2021/11/28 04:54:55;;;;;;;6.22;3.67;;;;;;;-0.18;100.00;96982.22;5075753;28;20052;-80
2021/11/28 04:57:23;;;;;;;5.57;3.10;;;;;;;-0.20;100.00;96986.88;5075997;28;20478;-80
2021/11/28 04:59:50;;;;;;;5.57;3.50;;;;;;;-0.32;100.00;96974.91;5075950;28;20052;-80
2021/11/28 05:02:17;;;;;;;7.15;3.17;;;;;;;-0.22;100.00;96981.72;5074907;28;20102;-80
2021/11/28 05:04:44;;;;;;;6.18;3.92;;;;;;;-0.22;100.00;96996.91;5075806;28;20048;-80
2021/11/28 05:07:11;;;;;;;4.40;3.22;;;;;;;-0.37;100.00;96972.75;5089254;28;20044;-80
2021/11/28 05:09:38;;;;;;;8.68;3.17;;;;;;;-0.24;100.00;96980.22;5094570;28;20059;-80
2021/11/28 05:12:05;;;;;;;4.70;3.40;;;;;;;-0.15;100.00;97007.75;5096425;28;20121;-80
2021/11/28 05:14:33;;;;;;;5.75;3.47;;;;;;;-0.36;100.00;96987.78;5096526;28;20055;-80
2021/11/28 05:17:00;;;;;;;11.30;3.95;;;;;;;-0.33;100.00;96997.25;5096504;28;20200;-80
2021/11/28 05:19:27;;;;;;;7.70;4.30;;;;;;;-0.19;100.00;96994.72;5092802;28;20400;-79
2021/11/28 05:21:54;;;;;;;6.30;3.72;;;;;;;0.00;100.00;96987.34;5076096;28;20048;-80
2021/11/28 05:24:21;;;;;;;6.13;3.30;;;;;;;0.00;100.00;96992.69;5083354;28;20044;-80
2021/11/28 05:26:47;;;;;;;6.38;3.90;;;;;;;-0.16;100.00;96998.91;5095305;28;20048;-80
2021/11/28 05:29:18;;;;;;;5.65;4.05;;;;;;;-0.24;100.00;96997.09;5093312;28;20110;-80
2021/11/28 05:31:46;;;;;;;6.70;4.10;;;;;;;-0.40;100.00;96981.09;5090730;28;20086;-80
2021/11/28 05:34:13;;;;;;;7.32;4.45;;;;;;;-0.34;100.00;96975.06;5083109;28;20045;-80
2021/11/28 05:36:39;;;;;;;13.13;4.60;;;;;;;-0.28;100.00;96982.41;5075636;28;20037;-80
2021/11/28 05:39:06;;;;;;;6.07;4.57;;;;;;;-0.20;100.00;96994.91;5072483;28;20051;-80
2021/11/28 05:41:33;;;;;;;8.43;5.82;;;;;;;-0.12;100.00;96991.38;5095617;28;20047;-80
2021/11/28 05:44:00;;;;;;;8.52;4.63;;;;;;;-0.21;100.00;96993.22;5095648;28;20052;-80
2021/11/28 05:46:27;;;;;;;6.43;4.53;;;;;;;-0.17;100.00;97004.41;5095787;28;20048;-80
2021/11/28 05:48:55;;;;;;;5.38;4.03;;;;;;;-0.26;100.00;96991.06;5095679;28;20048;-80
2021/11/28 05:51:22;;;;;;;8.32;3.78;;;;;;;-0.20;100.00;97000.25;5077595;28;20045;-80
2021/11/28 05:53:49;;;;;;;4.95;3.58;;;;;;;-0.23;100.00;96995.25;5075105;28;20040;-80
2021/11/28 05:56:17;;;;;;;6.03;3.90;;;;;;;-0.23;100.00;96993.38;5082226;28;20048;-80
2021/11/28 05:58:43;;;;;;;6.75;4.00;;;;;;;-0.29;100.00;96996.75;5095114;28;20084;-80
2021/11/28 06:01:11;;;;;;;4.82;3.65;;;;;;;-0.29;100.00;97002.09;5095198;28;20082;-80
2021/11/28 06:03:37;;;;;;;4.50;3.47;;;;;;;-0.26;100.00;97006.25;5092738;28;20510;-80
2021/11/28 06:06:06;;;;;;;6.93;3.97;;;;;;;-0.42;100.00;96996.44;5075434;28;20048;-79
2021/11/28 06:08:33;;;;;;;5.68;3.65;;;;;;;-0.28;100.00;97008.28;5066418;28;20053;-79
2021/11/28 06:10:59;;;;;;;5.95;4.35;;;;;;;-0.25;100.00;97007.94;5074742;28;20101;-80
2021/11/28 06:15:53;;;;;;;9.30;3.90;;;;;;;-0.31;100.00;97003.28;5111533;27;20785;-80
2021/11/28 06:18:20;;;;;;;6.60;4.55;;;;;;;-0.31;100.00;97000.59;5110759;28;20043;-80
2021/11/28 06:20:47;;;;;;;6.68;3.72;;;;;;;-0.22;100.00;97007.59;5110675;28;20388;-80
2021/11/28 06:23:14;;;;;;;10.00;4.03;;;;;;;-0.24;100.00;97007.78;5110950;28;20691;-80
2021/11/28 06:25:40;;;;;;;5.68;3.30;;;;;;;-0.31;100.00;96996.09;5107640;28;20048;-80
2021/11/28 06:28:15;;;;;;;5.32;3.75;;;;;;;-0.21;100.00;97017.25;5110019;28;20120;-80
2021/11/28 06:30:43;;;;;;;4.78;3.50;;;;;;;-0.26;100.00;97017.75;5095232;28;20565;-79
2021/11/28 06:33:11;;;;;;;4.93;3.28;;;;;;;-0.23;100.00;97027.28;5107258;28;20052;-79
2021/11/28 06:35:38;;;;;;;8.95;4.10;;;;;;;-0.23;100.00;97038.78;5110027;28;20039;-79
2021/11/28 06:38:04;;;;;;;5.97;3.72;;;;;;;-0.30;100.00;97008.44;5109844;28;20117;-79
2021/11/28 06:40:31;;;;;;;7.95;4.20;;;;;;;-0.32;100.00;97017.63;5110270;28;20096;-79
2021/11/28 06:42:58;;;;;;;6.78;3.88;;;;;;;-0.16;100.00;97027.47;5110610;28;20055;-80
2021/11/28 06:45:25;;;;;;;8.35;3.22;;;;;;;-0.21;100.00;97020.78;5110098;28;20039;-79
2021/11/28 06:47:53;;;;;;;6.30;3.90;;;;;;;-0.22;100.00;97024.44;5110123;28;20113;-79
2021/11/28 06:50:21;;;;;;;6.32;3.72;;;;;;;-0.17;100.00;97025.78;5108541;28;20039;-79
2021/11/28 06:52:48;;;;;;;7.50;3.38;;;;;;;-0.37;100.00;97004.78;5110155;28;20059;-79
2021/11/28 06:55:15;;;;;;;5.85;3.10;;;;;;;-0.28;100.00;97016.28;5109870;28;20093;-79
2021/11/28 06:57:42;;;;;;;6.35;3.65;;;;;;;-0.22;100.00;97023.63;5109955;28;20056;-79
2021/11/28 07:00:10;;;;;;;4.88;3.28;;;;;;;-0.17;100.00;97010.56;5109775;28;20101;-79
2021/11/28 07:02:37;;;;;;;5.00;3.50;;;;;;;-0.19;100.00;97029.44;5109701;28;20059;-79
2021/11/28 07:05:04;;;;;;;4.43;3.60;;;;;;;-0.36;100.00;97033.97;5110057;28;20051;-82
2021/11/28 07:07:32;;;;;;;9.20;3.80;;;;;;;-0.33;100.00;97013.28;5109395;28;20048;-80
2021/11/28 07:09:59;;;;;;;5.85;3.78;;;;;;;-0.25;100.00;97022.13;5099009;28;20130;-80
2021/11/28 07:12:26;;;;;;;4.63;3.60;;;;;;;-0.10;100.00;97030.28;5090193;28;20052;-80
2021/11/28 07:14:53;;;;;;;5.20;3.45;;;;;;;-0.13;100.00;97027.13;5109166;28;20048;-80
2021/11/28 07:17:19;;;;;;;5.95;3.72;;;;;;;-0.03;100.00;97028.59;5109321;28;20101;-80
2021/11/28 07:19:46;;;;;;;6.88;4.45;;;;;;;0.04;100.00;97035.91;5107615;28;20059;-80
2021/11/28 07:22:13;;;;;;;5.80;3.80;;;;;;;-0.05;100.00;97025.25;5109271;28;20195;-80
2021/11/28 07:24:42;;;;;;;11.80;4.45;;;;;;;-0.13;100.00;97035.13;5108970;28;20047;-80
2021/11/28 07:27:09;;;;;;;7.15;3.92;;;;;;;-0.14;100.00;97033.44;5095496;28;20054;-80
2021/11/28 07:29:37;;;;;;;7.47;4.53;;;;;;;-0.21;100.00;97031.47;5095633;28;20088;-80
2021/11/28 07:32:04;;;;;;;4.95;3.13;;;;;;;-0.11;100.00;97047.28;5095785;28;20457;-80
2021/11/28 07:34:31;;;;;;;6.30;3.53;;;;;;;-0.13;100.00;97045.81;5095870;28;20052;-80
2021/11/28 07:36:58;;;;;;;5.53;3.60;;;;;;;-0.12;100.00;97050.97;5094448;28;20082;-80
2021/11/28 07:39:25;;;;;;;8.23;4.05;;;;;;;-0.10;100.00;97051.63;5094854;28;20074;-80
2021/11/28 07:41:53;;;;;;;6.30;3.25;;;;;;;-0.11;100.00;97054.47;5095306;28;20066;-80
2021/11/28 07:44:20;;;;;;;7.75;3.50;;;;;;;-0.10;100.00;97061.50;5094791;28;20055;-80
2021/11/28 07:46:47;;;;;;;4.80;3.75;;;;;;;-0.10;100.00;97056.97;5095414;28;20052;-80
2021/11/28 07:49:14;;;;;;;8.38;3.70;;;;;;;-0.03;100.00;97063.31;5094881;28;20479;-80
2021/11/28 07:51:40;;;;;;;4.78;3.58;;;;;;;0.11;100.00;97061.78;5095057;28;20048;-80
2021/11/28 07:54:07;;;;;;;6.22;3.42;;;;;;;-0.03;100.00;97046.44;5093944;28;20105;-80
2021/11/28 07:56:34;;;;;;;8.32;4.00;;;;;;;-0.09;100.00;97042.63;5094537;28;20055;-80
2021/11/28 07:59:03;;;;;;;8.85;3.83;;;;;;;0.14;100.00;97049.94;5094910;28;20430;-80
2021/11/28 08:01:47;;;;;;;5.45;3.72;;;;;;;0.29;100.00;97058.06;5094230;28;20491;-80
2021/11/28 08:04:13;;;;;;;5.18;3.70;;;;;;;0.19;100.00;97050.25;5095187;28;20092;-80
2021/11/28 08:06:40;;;;;;;7.47;3.90;;;;;;;0.36;100.00;97059.03;5095156;28;20048;-79
2021/11/28 08:09:07;;;;;;;7.97;4.15;;;;;;;0.21;100.00;97053.59;5093477;28;20093;-79
2021/11/28 08:11:34;;;;;;;8.88;3.65;;;;;;;0.31;100.00;97056.88;5094064;28;20044;-79
2021/11/28 08:14:01;;;;;;;7.07;4.28;;;;;;;0.34;100.00;97055.72;5094560;28;20044;-80
2021/11/28 08:16:30;;;;;;;6.72;3.63;;;;;;;0.32;100.00;97057.72;5094566;28;20454;-80
2021/11/28 08:18:57;;;;;;;7.28;3.63;;;;;;;0.25;100.00;97044.19;5094023;28;20044;-80
2021/11/28 08:21:27;;;;;;;10.90;4.20;;;;;;;0.31;100.00;97062.22;5094767;28;20052;-80
2021/11/28 08:23:55;;;;;;;7.00;3.70;;;;;;;0.14;100.00;97042.75;5094781;28;20043;-80
2021/11/28 08:26:22;;;;;;;7.53;3.60;;;;;;;0.26;100.00;97072.59;5093937;28;20052;-80
2021/11/28 08:28:49;;;;;;;9.57;5.55;;;;;;;0.15;100.00;97052.44;5093711;28;20052;-80
2021/11/28 08:31:16;;;;;;;7.05;4.18;;;;;;;0.25;100.00;97059.41;5094210;28;20510;-80
2021/11/28 08:33:45;;;;;;;5.82;3.28;;;;;;;0.31;100.00;97058.72;5094606;28;20052;-80
2021/11/28 08:36:12;;;;;;;5.88;3.47;;;;;;;0.29;100.00;97056.22;5094028;28;20044;-80
2021/11/28 08:38:42;;;;;;;11.73;4.40;;;;;;;0.32;100.00;97061.22;5092887;28;20056;-80
2021/11/28 08:41:10;;;;;;;8.52;4.63;;;;;;;0.27;100.00;97068.09;5094163;28;20139;-80
2021/11/28 08:43:37;;;;;;;5.90;4.00;;;;;;;0.29;100.00;97079.47;5094160;28;20058;-80
2021/11/28 08:46:04;;;;;;;6.55;4.53;;;;;;;0.21;100.00;97066.94;5093680;28;20048;-80
2021/11/28 08:48:31;;;;;;;8.57;3.15;;;;;;;0.21;100.00;97084.81;5094093;28;20495;-79
2021/11/28 08:50:59;;;;;;;9.00;5.22;;;;;;;0.44;100.00;97095.63;5094029;28;20048;-79
2021/11/28 08:53:27;;;;;;;12.07;5.57;;;;;;;0.43;100.00;97078.72;5093058;28;20063;-79
2021/11/28 08:55:54;;;;;;;6.47;3.08;;;;;;;0.48;100.00;97081.75;5092947;28;20044;-80
2021/11/28 08:58:21;;;;;;;10.85;3.38;;;;;;;0.60;100.00;97094.72;5093967;28;20040;-79
2021/11/28 09:00:48;;;;;;;3.63;3.03;;;;;;;0.50;100.00;97089.59;5093468;28;20048;-79
2021/11/28 09:03:15;;;;;;;4.60;3.13;;;;;;;0.48;100.00;97081.75;5094293;28;20076;-80
2021/11/28 09:05:42;;;;;;;4.43;2.72;;;;;;;0.56;100.00;97098.75;5093872;28;20055;-80
2021/11/28 09:08:11;;;;;;;3.38;2.50;;;;;;;0.53;100.00;97103.44;5093232;28;20487;-80
2021/11/28 09:10:41;;;;;;;6.25;3.10;;;;;;;0.63;100.00;97105.94;5092886;28;20044;-80
2021/11/28 09:13:13;;;;;;;5.75;3.17;;;;;;;0.54;100.00;97096.25;5093914;28;20043;-80
2021/11/28 09:15:41;;;;;;;6.85;3.25;;;;;;;0.47;100.00;97098.78;5093346;28;20044;-80
2021/11/28 09:18:12;;;;;;;3.67;2.75;;;;;;;0.61;100.00;97105.25;5093120;28;20496;-80
2021/11/28 09:20:44;;;;;;;8.35;4.28;;;;;;;0.69;100.00;97123.09;5093743;28;20087;-80
2021/11/28 09:25:57;;;;;;;4.40;2.83;;;;;;;0.66;100.00;97110.94;5093634;28;20150;-80
2021/11/28 09:28:25;;;;;;;7.82;4.30;;;;;;;0.65;100.00;97092.38;5092461;28;20040;-80
2021/11/28 09:30:52;;;;;;;9.25;3.33;;;;;;;0.73;100.00;97108.38;5093708;28;20404;-80
2021/11/28 09:33:19;;;;;;;6.07;3.60;;;;;;;0.74;100.00;97094.00;5093575;28;20051;-80
2021/11/28 09:35:46;;;;;;;8.35;3.97;;;;;;;0.75;100.00;97102.84;5093368;28;20117;-80
2021/11/28 09:38:14;;;;;;;7.40;2.95;;;;;;;0.78;100.00;97089.97;5092146;28;20044;-79
2021/11/28 09:40:45;;;;;;;4.25;2.97;;;;;;;0.93;100.00;97111.47;5093431;28;20048;-80
2021/11/28 09:43:30;;;;;;;4.22;3.13;;;;;;;0.82;100.00;97093.13;5092908;28;20491;-78
2021/11/28 09:45:58;;;;;;;5.15;3.00;;;;;;;1.04;100.00;97113.78;5079656;28;20048;-80
2021/11/28 09:48:25;;;;;;;11.32;4.70;;;;;;;1.01;100.00;97116.78;5093111;28;20132;-79
2021/11/28 09:50:52;;;;;;;8.38;3.40;;;;;;;0.88;100.00;97103.13;5073419;28;20049;-80
2021/11/28 09:53:21;;;;;;;9.30;4.15;;;;;;;0.94;100.00;97109.66;5089671;28;20058;-80
2021/11/28 09:55:50;;;;;;;6.05;3.70;;;;;;;0.98;100.00;97098.41;5093395;28;20044;-80
2021/11/28 09:58:18;;;;;;;4.97;2.95;;;;;;;1.07;100.00;97088.50;5093554;28;20052;-80
2021/11/28 10:00:45;;;;;;;7.78;3.42;;;;;;;1.10;100.00;97084.63;5089368;28;20056;-80
2021/11/28 10:03:12;;;;;;;4.40;3.35;;;;;;;1.04;100.00;97094.22;5090381;28;20055;-81
2021/11/28 10:05:40;;;;;;;3.20;2.47;;;;;;;0.99;100.00;97088.53;5093100;28;20117;-81
2021/11/28 10:08:07;;;;;;;6.22;2.78;;;;;;;1.09;100.00;97082.97;5092743;28;20087;-80
2021/11/28 10:10:36;;;;;;;5.57;3.75;;;;;;;1.19;100.00;97097.81;5092752;28;20054;-80
2021/11/28 10:13:03;;;;;;;4.10;2.75;;;;;;;1.23;100.00;97098.28;5092696;28;20052;-81
2021/11/28 10:15:33;;;;;;;6.10;3.17;;;;;;;1.31;100.00;97094.72;5092620;28;20040;-81
2021/11/28 10:18:02;;;;;;;4.72;2.67;;;;;;;1.36;100.00;97081.63;5092388;28;20044;-81
2021/11/28 10:20:29;;;;;;;7.25;3.30;;;;;;;1.47;100.00;97097.28;5089138;28;20041;-81
2021/11/28 10:22:56;;;;;;;4.63;2.72;;;;;;;1.30;100.00;97071.66;5080980;28;20064;-81
2021/11/28 10:25:25;;;;;;;4.22;2.75;;;;;;;1.43;100.00;97082.59;5092898;28;20036;-81
2021/11/28 10:27:55;;;;;;;5.57;2.70;;;;;;;1.53;100.00;97074.31;5092340;28;20048;-80
2021/11/28 10:30:38;;;;;;;7.57;2.53;;;;;;;1.41;100.00;97061.31;5093225;28;20067;-81
2021/11/28 10:33:07;;;;;;;6.25;3.08;;;;;;;1.47;100.00;97070.50;5091282;28;20508;-80
2021/11/28 10:35:34;;;;;;;7.20;2.88;;;;;;;1.34;100.00;97062.22;5072874;28;20048;-81
2021/11/28 10:38:11;;;;;;;7.10;4.32;;;;;;;1.47;100.00;97072.34;5071662;28;20051;-81
2021/11/28 10:40:44;;;;;;;8.25;3.00;;;;;;;1.57;100.00;97076.47;5072795;28;20067;-81
2021/11/28 10:43:14;;;;;;;5.20;3.03;;;;;;;1.68;100.00;97075.19;5072959;28;20053;-81
2021/11/28 10:45:47;;;;;;;9.90;2.95;;;;;;;1.65;100.00;97061.34;5072493;28;20056;-81
2021/11/28 10:48:15;;;;;;;6.95;4.97;;;;;;;1.69;100.00;97062.66;5072622;28;20443;-81
2021/11/28 10:50:43;;;;;;;5.18;3.03;;;;;;;1.77;100.00;97070.59;5092255;28;20051;-81
2021/11/28 10:53:15;;;;;;;6.53;3.17;;;;;;;1.79;100.00;97075.78;5092392;28;20052;-81
2021/11/28 10:55:44;;;;;;;11.60;5.15;;;;;;;1.70;100.00;97069.66;5078415;28;20123;-81
2021/11/28 10:58:17;;;;;;;11.32;3.28;;;;;;;1.84;100.00;97076.91;5072412;28;20135;-81
2021/11/28 11:01:07;;;;;;;3.78;2.67;;;;;;;1.83;100.00;97061.84;5091816;28;20060;-80
2021/11/28 11:03:35;;;;;;;5.50;3.25;;;;;;;1.79;100.00;97076.59;5096468;28;20094;-81
2021/11/28 11:06:16;;;;;;;4.22;2.80;;;;;;;1.80;100.00;97080.13;5096342;28;20521;-81
2021/11/28 11:08:47;;;;;;;6.03;3.55;;;;;;;1.67;100.00;97067.34;5095280;28;20043;-81
2021/11/28 11:11:16;;;;;;;7.15;3.72;;;;;;;1.77;100.00;97062.56;5096118;28;20047;-81
2021/11/28 11:14:01;;;;;;;7.47;2.92;;;;;;;1.84;100.00;97078.78;5095458;28;20079;-81
2021/11/28 11:16:35;;;;;;;9.60;3.45;;;;;;;1.80;100.00;97072.94;5078408;28;20044;-81
2021/11/28 11:19:28;;;;;;;4.93;3.28;;;;;;;1.85;100.00;97086.63;5086923;28;20496;-81
2021/11/28 11:22:07;;;;;;;8.15;2.90;;;;;;;1.71;100.00;97068.66;5094968;28;20503;-81
2021/11/28 11:24:36;;;;;;;6.80;2.63;;;;;;;1.73;100.00;97080.88;5095633;28;20500;-81
2021/11/28 11:27:12;;;;;;;9.10;3.20;;;;;;;1.59;100.00;97068.25;5094739;28;20052;-81
2021/11/28 11:29:43;;;;;;;7.47;3.67;;;;;;;1.87;100.00;97078.41;5095422;28;20298;-81
2021/11/28 11:32:12;;;;;;;7.45;3.38;;;;;;;1.84;100.00;97060.00;5096146;28;20126;-81
2021/11/28 11:34:43;;;;;;;7.35;2.88;;;;;;;1.88;100.00;97066.66;5096085;28;20062;-81
2021/11/28 11:37:13;;;;;;;7.28;3.30;;;;;;;1.85;100.00;97073.22;5095236;28;20390;-80